Church View, Virginia
Current Conditions -  °F | °C
As of 2:55 PM on Friday 19 Dec 2014 (Local Time) from KFYJ Reporting Station
Clear Clear  
Wind Chill: 44°   Ceiling: Unl
Heat Index: 47°   Visibility: 10mi
Dew Point: 22°   Wind: 6mph
Humidity: 39%   Direction: 340°NNW
Pressure: 30.16"   Gusts: NA
Location:  37.68°N, 76.68°W
Report Text: KFYJ 191955Z AUTO 34005KT 10SM CLR 08/M05 A3016 RMK AO2 T00811053
Loading
Personal Weather Stations






























Interactive Weather Map New forecast layout! Learn more

10-Day Weather Forecast

Advertisements
Track Severe Weather on mobile